Time;durP1;ratioP1;P1;durP2;ratioP2;P2;SDS_P1;SDS_P2;PMS_P1;PMS_P2;Temp;Humidity;BMP_temperature;BMP_pressure;BME280_temperature;BME280_humidity;BME280_pressure;Samples;Min_cycle;Max_cycle;Signal;HPM_P1;HPM_P2
2022/01/31 00:00:57;;;;;;;32.38;6.25;;;;;;;3.20;99.76;101463.94;5073702;28;20025;-77
2022/01/31 00:03:22;;;;;;;30.02;7.38;;;;;;;3.18;100.00;101442.13;5074021;28;20039;-79
2022/01/31 00:05:48;;;;;;;39.00;8.07;;;;;;;3.17;100.00;101440.41;5074231;28;20111;-77
2022/01/31 00:08:20;;;;;;;31.20;7.25;;;;;;;3.15;100.00;101431.72;5073675;28;20028;-77
2022/01/31 00:10:46;;;;;;;29.95;7.55;;;;;;;3.12;100.00;101414.34;5073632;28;20037;-77
2022/01/31 00:13:18;;;;;;;28.77;7.97;;;;;;;3.11;100.00;101412.63;5073481;28;20120;-77
2022/01/31 00:15:47;;;;;;;44.47;7.90;;;;;;;3.08;100.00;101420.69;5072338;28;20031;-76
2022/01/31 00:18:12;;;;;;;35.30;8.30;;;;;;;3.09;100.00;101409.25;5074012;28;20036;-75
2022/01/31 00:20:38;;;;;;;30.02;7.40;;;;;;;3.09;100.00;101396.09;5073972;28;20082;-75
2022/01/31 00:23:03;;;;;;;30.38;8.48;;;;;;;3.10;100.00;101379.38;5073235;28;20120;-75
2022/01/31 00:25:29;;;;;;;36.67;8.30;;;;;;;3.14;100.00;101370.41;5073448;28;20032;-76
2022/01/31 00:27:54;;;;;;;28.83;7.90;;;;;;;3.19;100.00;101364.91;5073405;28;20044;-76
2022/01/31 00:30:20;;;;;;;36.35;8.60;;;;;;;3.21;100.00;101349.06;5073321;28;20067;-75
2022/01/31 00:32:47;;;;;;;44.08;9.13;;;;;;;3.22;100.00;101342.88;5073386;28;20449;-74
2022/01/31 00:35:13;;;;;;;26.20;7.60;;;;;;;3.23;100.00;101310.38;5073879;28;20032;-76
2022/01/31 00:37:39;;;;;;;34.28;7.70;;;;;;;3.26;100.00;101316.31;5073110;28;20480;-75
2022/01/31 00:40:05;;;;;;;36.03;7.80;;;;;;;3.33;100.00;101306.34;5073379;28;20029;-75
2022/01/31 00:42:32;;;;;;;32.35;8.00;;;;;;;3.34;100.00;101301.00;5071965;28;20066;-76
2022/01/31 00:45:09;;;;;;;31.30;7.50;;;;;;;3.37;100.00;101289.44;5073213;28;20036;-75
2022/01/31 00:47:37;;;;;;;30.17;6.35;;;;;;;3.39;100.00;101282.34;5076501;28;20186;-75
2022/01/31 00:50:07;;;;;;;35.72;7.93;;;;;;;3.42;100.00;101290.06;5077424;28;20601;-75
2022/01/31 00:52:34;;;;;;;25.33;6.40;;;;;;;3.44;100.00;101275.03;5077253;28;20086;-75
2022/01/31 00:54:59;;;;;;;29.35;6.75;;;;;;;3.47;100.00;101264.34;5077132;28;20397;-76
2022/01/31 00:57:24;;;;;;;24.92;6.57;;;;;;;3.50;100.00;101237.03;5077856;28;20033;-75
2022/01/31 00:59:51;;;;;;;19.65;6.72;;;;;;;3.51;100.00;101233.47;5075758;28;20511;-75
2022/01/31 01:02:23;;;;;;;17.33;5.78;;;;;;;3.55;100.00;101224.47;5077276;28;20113;-74
2022/01/31 01:04:48;;;;;;;17.85;5.38;;;;;;;3.61;100.00;101215.38;5077179;28;20032;-76
2022/01/31 01:07:14;;;;;;;19.50;5.82;;;;;;;3.61;100.00;101207.50;5077112;28;20079;-75
2022/01/31 01:09:47;;;;;;;21.25;6.25;;;;;;;3.61;100.00;101210.97;5077188;28;20068;-75
2022/01/31 01:12:14;;;;;;;19.38;5.43;;;;;;;3.66;100.00;101180.00;5077268;28;20102;-75
2022/01/31 01:14:40;;;;;;;19.33;5.10;;;;;;;3.75;100.00;101175.13;5077218;28;20461;-77
2022/01/31 01:17:06;;;;;;;15.48;5.43;;;;;;;3.81;100.00;101180.06;5076913;28;20033;-74
2022/01/31 01:19:32;;;;;;;25.83;5.70;;;;;;;3.86;100.00;101170.94;5075885;28;20035;-77
2022/01/31 01:21:57;;;;;;;17.85;4.93;;;;;;;3.94;100.00;101172.31;5076852;28;20388;-74
2022/01/31 01:24:23;;;;;;;19.45;5.50;;;;;;;3.98;100.00;101158.03;5076774;28;20035;-75
2022/01/31 01:26:49;;;;;;;37.45;6.53;;;;;;;4.04;100.00;101166.41;5076525;28;20358;-74
2022/01/31 01:29:15;;;;;;;31.95;5.55;;;;;;;4.21;100.00;101161.94;5076712;28;20040;-74
2022/01/31 01:31:43;;;;;;;41.83;6.13;;;;;;;4.30;100.00;101158.81;5076444;28;20029;-75
2022/01/31 01:34:09;;;;;;;28.38;5.10;;;;;;;4.37;100.00;101143.47;5077302;28;20111;-75
2022/01/31 01:36:35;;;;;;;33.33;5.80;;;;;;;4.46;100.00;101149.97;5076804;28;20464;-80
2022/01/31 01:39:00;;;;;;;37.72;5.30;;;;;;;4.54;100.00;101132.75;5076394;28;20102;-75
2022/01/31 01:41:26;;;;;;;48.63;7.90;;;;;;;4.66;100.00;101149.63;5076854;28;20028;-75
2022/01/31 01:43:51;;;;;;;51.17;6.43;;;;;;;4.72;100.00;101132.59;5076744;28;20036;-76
2022/01/31 01:46:17;;;;;;;29.10;4.47;;;;;;;4.77;100.00;101125.22;5075165;28;20429;-76
2022/01/31 01:48:42;;;;;;;22.45;4.40;;;;;;;4.77;100.00;101117.31;5075877;28;20531;-76
2022/01/31 01:51:08;;;;;;;32.63;5.22;;;;;;;4.84;100.00;101109.91;5076802;28;20028;-76
2022/01/31 01:53:33;;;;;;;25.13;4.63;;;;;;;4.97;100.00;101108.19;5074599;28;20059;-76
2022/01/31 01:55:59;;;;;;;21.02;4.20;;;;;;;4.99;100.00;101118.66;5076251;28;20055;-77
2022/01/31 01:58:26;;;;;;;27.27;4.93;;;;;;;5.04;98.98;101106.84;5075462;28;20029;-76
2022/01/31 02:01:02;;;;;;;25.48;4.63;;;;;;;5.01;99.00;101096.47;5076176;28;20082;-76
2022/01/31 02:03:30;;;;;;;32.50;4.70;;;;;;;5.05;97.99;101100.63;5076531;28;20453;-77
2022/01/31 02:05:56;;;;;;;22.80;4.50;;;;;;;5.04;97.70;101075.19;5075923;28;20069;-77
2022/01/31 02:08:23;;;;;;;18.67;3.97;;;;;;;5.02;97.73;101086.81;5075676;28;20056;-78
2022/01/31 02:10:49;;;;;;;24.50;4.25;;;;;;;5.00;97.64;101073.72;5075990;28;20028;-77
2022/01/31 02:13:15;;;;;;;25.50;4.25;;;;;;;5.04;97.00;101092.81;5076035;28;20036;-76
2022/01/31 02:15:43;;;;;;;23.92;4.50;;;;;;;5.04;96.59;101077.00;5075686;28;20186;-78
2022/01/31 02:18:09;;;;;;;30.15;4.40;;;;;;;5.14;95.04;101080.75;5074607;28;20115;-77
2022/01/31 02:20:41;;;;;;;20.27;3.72;;;;;;;5.16;94.93;101085.91;5075493;28;20120;-78
2022/01/31 02:23:10;;;;;;;16.35;3.80;;;;;;;5.15;94.90;101078.94;5075988;28;20042;-78
2022/01/31 02:25:52;;;;;;;19.58;4.45;;;;;;;5.17;93.77;101067.34;5075677;28;20027;-78
2022/01/31 02:28:18;;;;;;;23.38;3.40;;;;;;;5.24;92.89;101067.78;5075622;28;20057;-77
2022/01/31 02:30:43;;;;;;;19.02;3.35;;;;;;;5.24;91.80;101067.78;5075279;28;20124;-78
2022/01/31 02:33:09;;;;;;;20.05;3.33;;;;;;;5.22;91.21;101049.41;5074997;28;20059;-76
2022/01/31 02:35:35;;;;;;;15.80;3.60;;;;;;;5.22;91.00;101067.88;5074654;28;20086;-78
2022/01/31 02:38:00;;;;;;;21.20;3.72;;;;;;;5.28;89.51;101062.25;5074972;28;20028;-77
2022/01/31 02:40:26;;;;;;;17.50;2.90;;;;;;;5.26;89.38;101043.00;5075582;28;20032;-77
2022/01/31 02:42:52;;;;;;;22.95;3.50;;;;;;;5.22;89.52;101057.34;5075290;28;20110;-77
2022/01/31 02:45:17;;;;;;;31.65;6.55;;;;;;;5.18;88.87;101042.66;5075257;28;20064;-79
2022/01/31 02:47:50;;;;;;;23.55;3.25;;;;;;;5.14;88.87;101035.06;5075357;28;20071;-77
2022/01/31 02:50:15;;;;;;;21.23;2.92;;;;;;;5.17;88.67;101026.94;5075731;28;20036;-76
2022/01/31 02:52:47;;;;;;;20.95;3.85;;;;;;;5.18;87.67;101042.66;5075319;28;20039;-77
2022/01/31 02:55:13;;;;;;;17.00;2.78;;;;;;;5.13;87.85;101036.81;5075610;28;20167;-77
2022/01/31 02:57:39;;;;;;;21.75;3.47;;;;;;;5.12;87.23;101051.00;5074984;28;20056;-77
2022/01/31 03:00:07;;;;;;;21.50;2.95;;;;;;;5.09;87.36;101046.75;5074856;28;20168;-77
2022/01/31 03:02:33;;;;;;;28.27;3.25;;;;;;;5.05;87.28;101029.41;5074902;28;20384;-78
2022/01/31 03:04:58;;;;;;;21.20;4.22;;;;;;;4.97;87.38;101042.25;5075045;28;20044;-78
2022/01/31 03:07:23;;;;;;;15.35;2.70;;;;;;;5.03;86.61;101027.81;5074616;28;20041;-78
2022/01/31 03:09:49;;;;;;;20.98;2.92;;;;;;;4.99;86.95;101029.81;5075442;28;20072;-78
2022/01/31 03:12:14;;;;;;;18.65;3.15;;;;;;;4.92;87.67;101033.78;5074667;28;20033;-78
2022/01/31 03:14:42;;;;;;;20.00;2.95;;;;;;;4.88;87.08;101033.16;5074792;28;20037;-78
2022/01/31 03:17:08;;;;;;;18.92;2.90;;;;;;;4.96;86.60;101037.94;5074733;28;20090;-77
2022/01/31 03:19:38;;;;;;;19.08;2.88;;;;;;;4.90;87.18;101023.34;5074550;28;20460;-77
2022/01/31 03:22:04;;;;;;;20.23;3.28;;;;;;;4.99;86.03;101035.09;5074645;28;20035;-78
2022/01/31 03:24:29;;;;;;;24.88;4.05;;;;;;;4.95;86.15;101037.06;5074715;28;20170;-77
2022/01/31 03:26:54;;;;;;;23.80;3.22;;;;;;;4.95;85.18;101029.16;5072792;28;20520;-77
2022/01/31 03:29:20;;;;;;;21.15;3.20;;;;;;;4.97;84.85;101007.13;5073192;28;20078;-77
2022/01/31 03:31:45;;;;;;;20.02;3.20;;;;;;;5.01;83.97;100996.25;5074638;28;20035;-77
2022/01/31 03:34:10;;;;;;;23.67;3.13;;;;;;;5.06;83.70;101002.09;5074243;28;20452;-78
2022/01/31 03:36:36;;;;;;;25.73;3.40;;;;;;;5.09;82.74;100999.28;5074280;28;20039;-77
2022/01/31 03:39:02;;;;;;;30.00;3.78;;;;;;;5.21;81.43;101009.94;5074411;28;20476;-78
2022/01/31 03:41:28;;;;;;;18.70;2.70;;;;;;;5.19;81.56;100983.66;5073937;28;20040;-81
2022/01/31 03:43:53;;;;;;;19.52;2.78;;;;;;;5.18;81.40;101002.22;5074645;28;20560;-78
2022/01/31 03:46:19;;;;;;;17.77;2.72;;;;;;;5.13;81.46;100986.72;5074035;28;20028;-77
2022/01/31 03:48:46;;;;;;;23.17;4.10;;;;;;;5.14;80.35;100992.84;5072855;28;20142;-77
2022/01/31 03:51:11;;;;;;;21.92;3.08;;;;;;;5.10;80.96;100979.84;5073865;28;20519;-78
2022/01/31 03:53:37;;;;;;;21.23;3.35;;;;;;;5.10;79.96;100981.63;5073716;28;20028;-78
2022/01/31 03:56:02;;;;;;;16.73;3.58;;;;;;;5.14;80.05;100972.59;5073496;28;20512;-78
2022/01/31 03:58:28;;;;;;;18.40;3.80;;;;;;;5.14;79.45;100990.22;5073814;28;20055;-78
2022/01/31 04:00:53;;;;;;;28.00;3.30;;;;;;;5.19;78.72;100978.41;5073819;28;20029;-79
2022/01/31 04:03:19;;;;;;;20.13;2.80;;;;;;;5.20;78.72;100980.09;5073984;28;20060;-78
2022/01/31 04:05:44;;;;;;;20.38;3.05;;;;;;;5.23;78.58;100977.25;5073866;28;20396;-79
2022/01/31 04:08:12;;;;;;;18.70;3.45;;;;;;;5.27;78.06;100970.84;5073374;28;20429;-78
2022/01/31 04:10:37;;;;;;;29.33;3.63;;;;;;;5.28;78.34;100966.38;5073804;28;20456;-79
2022/01/31 04:13:06;;;;;;;15.20;3.42;;;;;;;5.24;79.30;100972.81;5072478;28;20028;-80
2022/01/31 04:15:35;;;;;;;20.10;3.38;;;;;;;5.30;78.80;100968.00;5072653;28;20036;-81
2022/01/31 04:18:00;;;;;;;25.02;3.70;;;;;;;5.41;77.27;100934.78;5073549;28;20047;-80
2022/01/31 04:20:26;;;;;;;31.23;3.75;;;;;;;5.37;77.98;100957.03;5073538;28;20032;-79
2022/01/31 04:23:07;;;;;;;20.67;2.92;;;;;;;5.35;77.53;100958.94;5072843;28;20033;-80
2022/01/31 04:28:22;;;;;;;17.67;3.05;;;;;;;5.30;77.13;100960.06;5073724;28;20043;-81
2022/01/31 04:30:57;;;;;;;13.52;2.95;;;;;;;5.43;75.20;100940.78;5074114;28;20112;-80
2022/01/31 04:33:24;;;;;;;16.83;3.00;;;;;;;5.40;76.39;100951.53;5073756;28;20046;-79
2022/01/31 04:35:50;;;;;;;22.42;2.80;;;;;;;5.42;75.80;100937.31;5072643;28;20033;-80
2022/01/31 04:38:15;;;;;;;18.20;3.00;;;;;;;5.41;75.97;100956.72;5073751;28;20357;-79
2022/01/31 04:40:41;;;;;;;14.10;2.80;;;;;;;5.43;75.67;100941.63;5073697;28;20068;-80
2022/01/31 04:43:06;;;;;;;22.00;3.17;;;;;;;5.43;75.46;100952.19;5072420;28;20036;-81
2022/01/31 04:45:32;;;;;;;16.50;2.53;;;;;;;5.37;76.93;100951.75;5072362;28;20033;-82
2022/01/31 04:47:57;;;;;;;18.23;2.70;;;;;;;5.10;78.70;100939.44;5073471;28;20115;-80
2022/01/31 04:50:22;;;;;;;26.48;3.25;;;;;;;4.91;80.39;100948.56;5073312;28;20066;-80
2022/01/31 04:52:48;;;;;;;16.83;2.67;;;;;;;4.80;81.65;100948.41;5072390;28;20032;-80
2022/01/31 04:55:13;;;;;;;15.98;3.03;;;;;;;4.56;84.50;100979.81;5073806;28;20058;-78
2022/01/31 04:57:40;;;;;;;24.52;3.42;;;;;;;4.28;87.14;100981.53;5072632;28;20028;-78
2022/01/31 05:00:08;;;;;;;22.40;3.33;;;;;;;4.08;89.47;100960.88;5074168;28;20032;-79
2022/01/31 05:02:35;;;;;;;25.17;4.50;;;;;;;3.98;90.11;100960.56;5073454;28;20468;-78
2022/01/31 05:05:01;;;;;;;22.35;2.85;;;;;;;3.99;89.44;100955.19;5071873;28;20039;-78
2022/01/31 05:07:27;;;;;;;25.85;3.15;;;;;;;4.05;89.22;100956.63;5073293;28;20036;-77
2022/01/31 05:09:52;;;;;;;33.50;4.20;;;;;;;4.14;88.11;100956.06;5074119;28;20056;-78
2022/01/31 05:12:17;;;;;;;28.67;3.80;;;;;;;4.31;86.59;100955.00;5073297;28;20035;-79
2022/01/31 05:14:43;;;;;;;18.48;3.30;;;;;;;4.47;83.93;100940.88;5073101;28;20477;-79
2022/01/31 05:17:08;;;;;;;24.25;3.40;;;;;;;4.57;83.16;100952.53;5072802;28;20036;-80
2022/01/31 05:19:34;;;;;;;18.63;3.13;;;;;;;4.57;83.13;100944.63;5072017;28;20063;-78
2022/01/31 05:22:00;;;;;;;28.20;3.95;;;;;;;4.56;82.94;100956.94;5073020;28;20041;-79
2022/01/31 05:24:26;;;;;;;22.33;3.85;;;;;;;4.57;81.99;100953.38;5073403;28;20025;-80
2022/01/31 05:26:52;;;;;;;22.48;3.75;;;;;;;4.66;81.18;100945.78;5073111;28;20044;-81
2022/01/31 05:29:18;;;;;;;24.10;4.93;;;;;;;4.74;79.65;100947.00;5073072;28;20123;-80
2022/01/31 05:31:43;;;;;;;26.35;3.92;;;;;;;4.79;80.21;100935.31;5073099;28;20114;-82
2022/01/31 05:34:09;;;;;;;22.63;3.70;;;;;;;4.83;79.51;100935.03;5074764;28;20044;-80
2022/01/31 05:36:34;;;;;;;23.98;3.97;;;;;;;4.82;79.96;100949.16;5077131;28;20040;-82
2022/01/31 05:39:00;;;;;;;29.45;5.15;;;;;;;4.82;80.11;100957.06;5077213;28;20036;-80
2022/01/31 05:41:25;;;;;;;29.38;3.95;;;;;;;4.81;80.43;100943.97;5076548;28;20389;-80
2022/01/31 05:43:51;;;;;;;23.88;4.20;;;;;;;4.78;81.01;100952.94;5076713;28;20072;-81
2022/01/31 05:46:17;;;;;;;33.78;4.75;;;;;;;4.78;82.12;100963.50;5076383;28;20423;-80
2022/01/31 05:48:42;;;;;;;27.38;3.78;;;;;;;4.73;82.00;100936.56;5077174;28;20062;-81
2022/01/31 05:51:15;;;;;;;13.10;3.25;;;;;;;4.75;79.70;100946.06;5077348;28;20032;-81
2022/01/31 05:53:42;;;;;;;29.67;3.83;;;;;;;4.74;80.15;100933.81;5077193;28;20551;-79
2022/01/31 05:56:07;;;;;;;29.23;3.65;;;;;;;4.71;80.54;100946.38;5076917;28;20028;-79
2022/01/31 05:58:34;;;;;;;23.73;4.18;;;;;;;4.77;80.03;100906.44;5076403;28;20031;-81
2022/01/31 06:00:59;;;;;;;26.75;4.10;;;;;;;4.77;79.34;100935.41;5075336;28;20029;-84
2022/01/31 06:03:25;;;;;;;27.10;3.50;;;;;;;4.85;78.66;100940.19;5076277;28;20384;-80
2022/01/31 06:05:50;;;;;;;30.52;4.70;;;;;;;4.87;79.54;100919.88;5077004;28;20342;-80
2022/01/31 06:08:17;;;;;;;22.80;4.03;;;;;;;4.98;78.19;100934.97;5076245;28;20454;-82
2022/01/31 06:10:45;;;;;;;27.27;3.78;;;;;;;5.02;77.92;100928.56;5076852;28;20044;-81
2022/01/31 06:13:10;;;;;;;32.15;3.70;;;;;;;5.05;77.57;100938.91;5076720;28;20039;-81
2022/01/31 06:15:36;;;;;;;30.95;3.97;;;;;;;5.07;77.19;100940.47;5078357;28;20115;-82
2022/01/31 06:18:02;;;;;;;33.58;4.68;;;;;;;5.09;77.21;100911.34;5077182;28;20039;-82
2022/01/31 06:20:27;;;;;;;19.08;3.70;;;;;;;5.08;77.77;100941.34;5078024;28;20028;-83
2022/01/31 06:22:53;;;;;;;34.60;4.45;;;;;;;5.03;77.31;100939.00;5079156;28;20032;-82
2022/01/31 06:25:19;;;;;;;32.58;5.28;;;;;;;5.03;76.62;100962.75;5077465;28;20082;-79
2022/01/31 06:27:46;;;;;;;22.50;3.63;;;;;;;5.08;75.21;100941.34;5076962;28;20468;-80
2022/01/31 06:30:12;;;;;;;23.02;3.53;;;;;;;5.12;75.31;100951.59;5079326;28;20040;-82
2022/01/31 06:32:37;;;;;;;27.75;4.85;;;;;;;5.12;75.81;100946.31;5075962;28;20036;-83
2022/01/31 06:35:04;;;;;;;27.70;4.35;;;;;;;5.12;76.05;100946.31;5074572;28;20456;-81
2022/01/31 06:37:29;;;;;;;29.17;4.93;;;;;;;5.13;76.81;100936.59;5075217;28;20109;-82
2022/01/31 06:39:54;;;;;;;27.50;4.47;;;;;;;4.88;79.33;100945.25;5076892;28;20025;-85
2022/01/31 06:42:20;;;;;;;32.80;4.85;;;;;;;4.60;81.76;100954.97;5075566;28;20045;-80
2022/01/31 06:44:45;;;;;;;30.98;4.45;;;;;;;4.38;84.18;100973.91;5075242;28;20029;-81
2022/01/31 06:47:11;;;;;;;42.03;5.00;;;;;;;4.28;85.00;100976.25;5075862;28;20056;-81
2022/01/31 06:49:36;;;;;;;26.63;4.10;;;;;;;4.24;85.80;100978.25;5075212;28;20068;-81
2022/01/31 06:52:03;;;;;;;47.45;5.20;;;;;;;4.18;85.49;100970.72;5075805;28;20350;-80
2022/01/31 06:54:28;;;;;;;31.88;4.80;;;;;;;4.13;86.24;100975.41;5074899;28;20089;-81
2022/01/31 06:56:56;;;;;;;28.85;4.07;;;;;;;4.14;85.68;100968.38;5074256;28;20032;-79
2022/01/31 06:59:21;;;;;;;28.65;4.50;;;;;;;4.16;85.83;100982.28;5075137;28;20040;-80
2022/01/31 07:01:47;;;;;;;31.80;5.35;;;;;;;4.21;86.36;100986.34;5075921;28;20033;-79
2022/01/31 07:04:12;;;;;;;35.80;5.03;;;;;;;4.23;86.25;100992.34;5074844;28;20032;-81
2022/01/31 07:06:37;;;;;;;34.42;5.07;;;;;;;4.27;86.36;101002.69;5073138;28;20073;-80
2022/01/31 07:09:03;;;;;;;44.28;5.80;;;;;;;4.24;86.55;100965.09;5073941;28;20048;-80
2022/01/31 07:11:33;;;;;;;31.65;4.43;;;;;;;4.34;85.85;100996.13;5074445;28;20507;-80
2022/01/31 07:14:06;;;;;;;35.88;5.03;;;;;;;4.33;85.63;101004.94;5074300;28;20029;-80
2022/01/31 07:16:32;;;;;;;34.38;5.18;;;;;;;4.32;85.46;100992.75;5072816;28;20040;-80
2022/01/31 07:19:04;;;;;;;31.08;4.75;;;;;;;4.37;84.92;101004.69;5074962;28;20036;-82
2022/01/31 07:21:35;;;;;;;;;;;;;;;4.44;84.12;100977.97;5075469;28;20480;-82
2022/01/31 07:24:17;;;;;;;42.28;6.18;;;;;;;4.51;82.72;100974.84;5074490;28;20349;-80
2022/01/31 07:26:44;;;;;;;34.90;5.88;;;;;;;4.48;84.41;100967.13;5073686;28;20130;-79
2022/01/31 07:29:09;;;;;;;39.72;5.65;;;;;;;4.37;85.05;100956.41;5074306;28;20029;-79
2022/01/31 07:31:35;;;;;;;34.88;4.75;;;;;;;4.32;84.58;100984.84;5074073;28;20040;-80
2022/01/31 07:34:01;;;;;;;23.38;4.88;;;;;;;4.34;83.83;100994.31;5074060;28;20029;-80
2022/01/31 07:36:26;;;;;;;32.10;5.13;;;;;;;4.37;84.25;101002.06;5074187;28;20381;-78
2022/01/31 07:38:52;;;;;;;36.95;5.20;;;;;;;4.39;84.38;101007.22;5074231;28;20056;-82
2022/01/31 07:41:17;;;;;;;25.58;4.70;;;;;;;4.54;82.05;100965.91;5074135;28;20029;-77
2022/01/31 07:43:44;;;;;;;42.42;4.68;;;;;;;4.64;81.20;101003.03;5073058;28;20039;-77
2022/01/31 07:46:12;;;;;;;27.77;4.18;;;;;;;4.73;80.76;100995.41;5074474;28;20041;-78
2022/01/31 07:48:37;;;;;;;28.52;5.32;;;;;;;4.77;81.05;101004.81;5074457;28;20083;-84
2022/01/31 07:51:02;;;;;;;26.17;4.80;;;;;;;4.81;80.75;101039.75;5074645;28;20105;-78
2022/01/31 07:53:28;;;;;;;33.28;4.40;;;;;;;4.81;80.72;101023.94;5073788;28;20362;-78
2022/01/31 07:55:53;;;;;;;35.00;4.25;;;;;;;4.88;79.54;101050.72;5055117;28;20051;-81
2022/01/31 07:58:20;;;;;;;39.75;4.93;;;;;;;4.91;79.94;101010.97;5073702;28;20066;-81
2022/01/31 08:00:45;;;;;;;37.33;5.80;;;;;;;4.91;80.60;101025.03;5072388;28;20514;-80
2022/01/31 08:03:11;;;;;;;40.90;5.43;;;;;;;4.94;80.22;101024.84;5074520;28;20068;-78
2022/01/31 08:05:36;;;;;;;35.15;5.30;;;;;;;4.98;79.95;101012.28;5072543;28;20361;-81
2022/01/31 08:08:02;;;;;;;38.80;5.03;;;;;;;5.03;79.80;101017.25;5074008;28;20035;-79
2022/01/31 08:10:27;;;;;;;39.30;4.78;;;;;;;5.01;80.55;101042.91;5074298;28;20461;-80
2022/01/31 08:12:55;;;;;;;41.88;6.30;;;;;;;4.82;84.77;101069.59;5073207;28;20424;-84
2022/01/31 08:15:25;;;;;;;21.27;3.92;;;;;;;4.39;87.02;101058.13;5073423;28;20040;-78
2022/01/31 08:17:51;;;;;;;44.90;5.25;;;;;;;4.17;89.08;101069.09;5073086;28;20021;-79
2022/01/31 08:20:16;;;;;;;32.95;5.55;;;;;;;4.09;89.96;101052.06;5073803;28;20033;-87
2022/01/31 08:22:42;;;;;;;51.42;5.93;;;;;;;4.14;88.17;101053.50;5072227;28;20119;-78
2022/01/31 08:25:13;;;;;;;36.60;5.28;;;;;;;4.19;86.72;101058.47;5072883;28;20081;-80
2022/01/31 08:27:41;;;;;;;46.03;6.28;;;;;;;4.28;85.91;101083.44;5073107;28;20043;-77
2022/01/31 08:30:11;;;;;;;36.42;5.13;;;;;;;4.33;85.15;101068.19;5073194;28;20035;-81
2022/01/31 08:32:44;;;;;;;41.78;5.47;;;;;;;4.47;82.71;101072.63;5073018;28;20032;-80
2022/01/31 08:37:54;;;;;;;36.80;4.82;;;;;;;4.62;81.68;101082.22;5073084;28;20089;-80
2022/01/31 08:40:20;;;;;;;34.42;5.28;;;;;;;4.72;81.68;101096.53;5073024;28;20115;-78
2022/01/31 08:42:45;;;;;;;38.15;5.53;;;;;;;4.82;81.10;101090.66;5072708;28;20113;-77
2022/01/31 08:45:11;;;;;;;38.38;5.65;;;;;;;4.85;81.09;101077.28;5073504;28;20036;-78
2022/01/31 08:47:41;;;;;;;44.47;6.75;;;;;;;4.90;81.46;101097.16;5073371;28;20538;-82
2022/01/31 08:50:08;;;;;;;40.58;5.15;;;;;;;4.93;81.64;101082.94;5073434;28;20040;-79
2022/01/31 08:52:33;;;;;;;36.38;5.90;;;;;;;4.93;81.37;101067.97;5071500;28;20052;-79
2022/01/31 08:54:59;;;;;;;34.33;5.78;;;;;;;4.97;80.76;101065.13;5072251;28;20117;-77
2022/01/31 08:57:24;;;;;;;37.03;6.57;;;;;;;4.99;80.56;101055.34;5073315;28;20028;-78
2022/01/31 08:59:51;;;;;;;33.40;4.95;;;;;;;4.98;81.69;101116.94;5072829;28;20032;-79
2022/01/31 09:02:25;;;;;;;47.38;6.55;;;;;;;4.75;84.13;101109.50;5073200;28;20535;-78
2022/01/31 09:04:51;;;;;;;40.28;5.53;;;;;;;4.63;83.25;101090.97;5073723;28;20042;-81
2022/01/31 09:07:22;;;;;;;40.47;6.38;;;;;;;4.69;80.50;101111.69;5073236;28;20055;-80
2022/01/31 09:09:53;;;;;;;41.25;6.35;;;;;;;4.77;80.07;101109.41;5076745;28;20049;-81
2022/01/31 09:12:20;;;;;;;52.92;7.22;;;;;;;4.90;78.94;101118.25;5077308;28;20056;-82
2022/01/31 09:14:46;;;;;;;39.45;6.43;;;;;;;5.06;77.70;101115.53;5075398;28;20056;-80
2022/01/31 09:17:12;;;;;;;39.80;6.50;;;;;;;5.11;76.99;101096.75;5076498;28;20444;-79
2022/01/31 09:19:37;;;;;;;39.47;5.68;;;;;;;5.17;75.01;101106.91;5076212;28;20028;-80
2022/01/31 09:22:03;;;;;;;53.42;7.05;;;;;;;5.26;74.43;101113.41;5058863;28;20127;-83
2022/01/31 09:24:29;;;;;;;51.65;7.10;;;;;;;5.29;74.07;101090.28;5074920;28;20055;-81
2022/01/31 09:26:55;;;;;;;46.90;7.05;;;;;;;5.36;74.31;101138.25;5076315;28;20086;-80
2022/01/31 09:29:21;;;;;;;44.25;5.88;;;;;;;5.38;74.88;101127.59;5074975;28;20025;-82
2022/01/31 09:31:46;;;;;;;36.45;6.15;;;;;;;5.43;72.81;101165.09;5075889;28;20024;-80
2022/01/31 09:34:12;;;;;;;49.22;7.88;;;;;;;5.42;73.51;101172.19;5075285;28;20123;-79
2022/01/31 09:36:38;;;;;;;51.40;8.75;;;;;;;5.46;72.69;101163.13;5058813;28;20040;-79
2022/01/31 09:39:04;;;;;;;39.28;6.25;;;;;;;5.43;71.46;101129.00;5076223;28;20028;-79
2022/01/31 09:41:32;;;;;;;39.47;6.80;;;;;;;5.40;70.94;101170.56;5075757;28;20033;-80
2022/01/31 09:46:46;;;;;;;42.08;5.97;;;;;;;5.33;70.66;101167.50;5076572;28;20052;-76
2022/01/31 09:49:12;;;;;;;44.83;6.75;;;;;;;5.34;70.92;101182.34;5076614;28;20115;-80
2022/01/31 09:51:37;;;;;;;44.75;6.43;;;;;;;5.36;70.68;101182.25;5076495;28;20175;-79
2022/01/31 09:54:04;;;;;;;46.17;6.95;;;;;;;5.36;71.08;101185.75;5075855;28;20031;-81
2022/01/31 09:56:33;;;;;;;43.80;7.15;;;;;;;5.33;72.35;101182.44;5075915;28;20107;-84
2022/01/31 09:59:00;;;;;;;54.83;7.03;;;;;;;5.32;74.52;101193.97;5076093;28;20487;-84
2022/01/31 10:01:27;;;;;;;52.50;7.13;;;;;;;5.24;76.09;101221.69;5075823;28;20028;-83
2022/01/31 10:04:09;;;;;;;51.13;6.75;;;;;;;5.08;77.35;101218.28;5075516;28;20063;-81
2022/01/31 10:06:37;;;;;;;45.55;6.63;;;;;;;4.82;78.75;101223.38;5075469;28;20032;-82
2022/01/31 10:09:07;;;;;;;50.70;7.15;;;;;;;4.66;78.73;101220.78;5075557;28;20091;-77
2022/01/31 10:11:46;;;;;;;46.92;6.78;;;;;;;4.68;78.17;101234.72;5073699;28;20024;-79
2022/01/31 10:17:09;;;;;;;43.88;7.22;;;;;;;4.94;77.00;101259.53;5075358;28;20088;-81
2022/01/31 10:19:41;;;;;;;48.97;7.18;;;;;;;5.01;75.64;101265.28;5074514;28;20107;-77
2022/01/31 10:22:09;;;;;;;48.00;6.32;;;;;;;5.05;75.38;101292.34;5075683;28;20028;-78
2022/01/31 10:24:36;;;;;;;42.97;6.55;;;;;;;5.08;74.55;101260.50;5075470;28;20035;-79
2022/01/31 10:27:14;;;;;;;48.83;6.60;;;;;;;5.13;75.00;101268.97;5075303;28;20043;-76
2022/01/31 10:29:41;;;;;;;43.60;8.35;;;;;;;5.18;74.33;101289.78;5073905;28;20032;-79
2022/01/31 10:32:11;;;;;;;54.25;6.55;;;;;;;5.17;74.96;101304.78;5074920;28;20110;-79
2022/01/31 10:34:44;;;;;;;48.58;8.60;;;;;;;5.14;75.55;101299.69;5075534;28;20047;-81
2022/01/31 10:37:13;;;;;;;62.28;7.68;;;;;;;5.12;75.99;101285.75;5075117;28;20481;-80
2022/01/31 10:53:59;;;;;;;48.80;7.18;;;;;;;5.00;76.81;101289.97;5074616;28;20078;-81
2022/01/31 10:56:33;;;;;;;60.50;7.80;;;;;;;5.06;75.11;101305.44;5074803;28;20036;-79
2022/01/31 10:59:20;;;;;;;47.10;6.65;;;;;;;5.13;74.88;101295.34;5074108;28;20054;-78
2022/01/31 11:01:47;;;;;;;49.38;7.28;;;;;;;5.16;74.62;101312.78;5072982;28;20092;-80
2022/01/31 11:04:15;;;;;;;49.42;6.10;;;;;;;5.19;73.95;101325.78;5072874;28;20028;-79
2022/01/31 11:06:47;;;;;;;49.15;8.70;;;;;;;5.20;73.81;101346.81;5072899;28;20033;-80
2022/01/31 11:09:15;;;;;;;52.85;6.75;;;;;;;5.17;73.54;101331.16;5074273;28;20415;-78
2022/01/31 11:11:48;;;;;;;56.15;8.32;;;;;;;5.08;74.87;101329.06;5074046;28;20384;-80
2022/01/31 11:14:14;;;;;;;44.45;7.10;;;;;;;4.92;76.43;101337.88;5073828;28;20372;-79
2022/01/31 11:16:43;;;;;;;64.57;7.80;;;;;;;4.81;77.20;101321.84;5074180;28;20089;-78
2022/01/31 11:19:10;;;;;;;53.80;7.68;;;;;;;4.58;78.77;101358.31;5073646;28;20028;-79
2022/01/31 11:21:44;;;;;;;58.67;7.82;;;;;;;4.42;80.53;101328.50;5074053;28;20116;-79
2022/01/31 11:24:23;;;;;;;64.18;9.07;;;;;;;4.26;82.52;101356.63;5074770;28;20028;-82
2022/01/31 11:26:51;;;;;;;63.15;7.50;;;;;;;4.16;83.25;101380.84;5074645;28;20032;-78
2022/01/31 11:29:17;;;;;;;52.17;8.50;;;;;;;4.11;84.75;101371.50;5073783;28;20125;-79
2022/01/31 11:31:43;;;;;;;58.17;6.80;;;;;;;4.07;84.78;101362.91;5072874;28;20047;-79
2022/01/31 11:34:09;;;;;;;47.10;7.18;;;;;;;3.97;85.41;101330.97;5073473;28;20040;-78
2022/01/31 11:36:37;;;;;;;66.32;8.68;;;;;;;3.89;86.42;101391.09;5073438;28;20068;-83
2022/01/31 11:39:07;;;;;;;50.70;7.20;;;;;;;3.89;86.33;101370.03;5072029;28;20035;-81
2022/01/31 11:41:35;;;;;;;44.22;7.15;;;;;;;3.93;86.30;101387.38;5073265;28;20456;-78
2022/01/31 11:44:13;;;;;;;67.60;8.65;;;;;;;3.89;87.35;101389.28;5073091;28;20024;-76
2022/01/31 11:46:40;;;;;;;56.78;8.27;;;;;;;3.84;88.04;101382.59;5073510;28;20020;-78
2022/01/31 11:49:10;;;;;;;66.07;8.35;;;;;;;3.81;88.79;101382.78;5073048;28;20041;-79